sensor_id;sensor_type;location;lat;lon;timestamp;pressure;altitude;pressure_sealevel;temperature;humidity
40171;BME280;37650;52.790;18.268;2023-04-25T00:00:00;99334.10;;;11.31;100.00
40171;BME280;37650;52.790;18.268;2023-04-25T00:03:41;99330.88;;;11.32;100.00
40171;BME280;37650;52.790;18.268;2023-04-25T00:07:02;99331.55;;;11.33;100.00
40171;BME280;37650;52.790;18.268;2023-04-25T00:10:24;99333.00;;;11.35;100.00
40171;BME280;37650;52.790;18.268;2023-04-25T00:13:45;99330.36;;;11.35;100.00
40171;BME280;37650;52.790;18.268;2023-04-25T00:17:07;99328.05;;;11.32;100.00
40171;BME280;37650;52.790;18.268;2023-04-25T00:20:29;99329.81;;;11.26;100.00
40171;BME280;37650;52.790;18.268;2023-04-25T00:23:52;99327.73;;;11.20;100.00
40171;BME280;37650;52.790;18.268;2023-04-25T00:27:14;99328.64;;;11.19;100.00
40171;BME280;37650;52.790;18.268;2023-04-25T00:30:36;99325.77;;;11.14;100.00
40171;BME280;37650;52.790;18.268;2023-04-25T00:33:57;99320.86;;;11.08;100.00
40171;BME280;37650;52.790;18.268;2023-04-25T00:37:18;99325.36;;;10.99;100.00
40171;BME280;37650;52.790;18.268;2023-04-25T00:40:40;99331.09;;;10.91;100.00
40171;BME280;37650;52.790;18.268;2023-04-25T00:44:05;99336.10;;;10.86;100.00
40171;BME280;37650;52.790;18.268;2023-04-25T00:47:28;99335.88;;;10.84;100.00
40171;BME280;37650;52.790;18.268;2023-04-25T00:50:54;99336.92;;;10.80;100.00
40171;BME280;37650;52.790;18.268;2023-04-25T00:54:16;99341.63;;;10.75;100.00
40171;BME280;37650;52.790;18.268;2023-04-25T00:57:37;99341.81;;;10.68;100.00
40171;BME280;37650;52.790;18.268;2023-04-25T01:00:59;99339.16;;;10.62;100.00
40171;BME280;37650;52.790;18.268;2023-04-25T01:04:21;99337.73;;;10.56;100.00
40171;BME280;37650;52.790;18.268;2023-04-25T01:07:42;99339.70;;;10.49;100.00
40171;BME280;37650;52.790;18.268;2023-04-25T01:11:04;99335.18;;;10.38;100.00
40171;BME280;37650;52.790;18.268;2023-04-25T01:14:25;99340.26;;;10.31;100.00
40171;BME280;37650;52.790;18.268;2023-04-25T01:17:47;99344.90;;;10.26;100.00
40171;BME280;37650;52.790;18.268;2023-04-25T01:21:11;99351.61;;;10.19;100.00
40171;BME280;37650;52.790;18.268;2023-04-25T01:24:34;99349.30;;;10.08;100.00
40171;BME280;37650;52.790;18.268;2023-04-25T01:27:56;99350.76;;;10.01;100.00
40171;BME280;37650;52.790;18.268;2023-04-25T01:31:18;99352.82;;;9.91;100.00
40171;BME280;37650;52.790;18.268;2023-04-25T01:34:39;99358.13;;;9.83;100.00
40171;BME280;37650;52.790;18.268;2023-04-25T01:38:00;99365.77;;;9.78;100.00
40171;BME280;37650;52.790;18.268;2023-04-25T01:41:21;99375.34;;;9.72;100.00
40171;BME280;37650;52.790;18.268;2023-04-25T01:44:44;99374.50;;;9.71;100.00
40171;BME280;37650;52.790;18.268;2023-04-25T01:48:07;99377.50;;;9.67;100.00
40171;BME280;37650;52.790;18.268;2023-04-25T01:51:28;99376.06;;;9.57;100.00
40171;BME280;37650;52.790;18.268;2023-04-25T01:54:50;99379.48;;;9.48;100.00
40171;BME280;37650;52.790;18.268;2023-04-25T01:58:12;99377.00;;;9.38;100.00
40171;BME280;37650;52.790;18.268;2023-04-25T02:02:05;99377.20;;;9.34;100.00
40171;BME280;37650;52.790;18.268;2023-04-25T02:05:27;99370.86;;;9.27;100.00
40171;BME280;37650;52.790;18.268;2023-04-25T02:08:49;99369.35;;;9.22;100.00
40171;BME280;37650;52.790;18.268;2023-04-25T02:12:11;99374.33;;;9.17;100.00
40171;BME280;37650;52.790;18.268;2023-04-25T02:15:55;99374.80;;;9.11;100.00
40171;BME280;37650;52.790;18.268;2023-04-25T02:19:16;99376.81;;;9.05;100.00
40171;BME280;37650;52.790;18.268;2023-04-25T02:22:37;99381.63;;;9.00;100.00
40171;BME280;37650;52.790;18.268;2023-04-25T02:26:00;99384.99;;;8.91;100.00
40171;BME280;37650;52.790;18.268;2023-04-25T02:29:21;99386.34;;;8.84;100.00
40171;BME280;37650;52.790;18.268;2023-04-25T02:32:42;99387.92;;;8.80;100.00
40171;BME280;37650;52.790;18.268;2023-04-25T02:36:04;99389.19;;;8.72;100.00
40171;BME280;37650;52.790;18.268;2023-04-25T02:39:25;99391.66;;;8.64;100.00
40171;BME280;37650;52.790;18.268;2023-04-25T02:42:48;99395.28;;;8.57;100.00
40171;BME280;37650;52.790;18.268;2023-04-25T02:46:09;99391.61;;;8.53;100.00
40171;BME280;37650;52.790;18.268;2023-04-25T02:49:31;99393.63;;;8.47;100.00
40171;BME280;37650;52.790;18.268;2023-04-25T02:52:53;99396.48;;;8.38;100.00
40171;BME280;37650;52.790;18.268;2023-04-25T02:56:19;99392.30;;;8.29;100.00
40171;BME280;37650;52.790;18.268;2023-04-25T02:59:40;99388.94;;;8.26;100.00
40171;BME280;37650;52.790;18.268;2023-04-25T03:03:02;99389.20;;;8.24;100.00
40171;BME280;37650;52.790;18.268;2023-04-25T03:06:23;99395.16;;;8.19;100.00
40171;BME280;37650;52.790;18.268;2023-04-25T03:09:44;99393.89;;;8.12;100.00
40171;BME280;37650;52.790;18.268;2023-04-25T03:13:06;99392.39;;;8.06;100.00
40171;BME280;37650;52.790;18.268;2023-04-25T03:16:27;99393.84;;;8.05;100.00
40171;BME280;37650;52.790;18.268;2023-04-25T03:19:48;99391.66;;;8.03;100.00
40171;BME280;37650;52.790;18.268;2023-04-25T03:23:09;99392.45;;;8.00;100.00
40171;BME280;37650;52.790;18.268;2023-04-25T03:26:31;99393.85;;;7.96;100.00
40171;BME280;37650;52.790;18.268;2023-04-25T03:29:52;99393.61;;;7.94;100.00
40171;BME280;37650;52.790;18.268;2023-04-25T03:33:14;99399.36;;;7.94;100.00
40171;BME280;37650;52.790;18.268;2023-04-25T03:36:35;99402.00;;;7.97;100.00
40171;BME280;37650;52.790;18.268;2023-04-25T03:39:56;99405.40;;;7.96;100.00
40171;BME280;37650;52.790;18.268;2023-04-25T03:43:19;99411.79;;;7.89;100.00
40171;BME280;37650;52.790;18.268;2023-04-25T03:46:50;99413.73;;;7.84;100.00
40171;BME280;37650;52.790;18.268;2023-04-25T03:50:12;99415.87;;;7.84;100.00
40171;BME280;37650;52.790;18.268;2023-04-25T03:53:33;99420.80;;;7.79;100.00
40171;BME280;37650;52.790;18.268;2023-04-25T03:57:09;99424.96;;;7.75;100.00
40171;BME280;37650;52.790;18.268;2023-04-25T04:00:33;99428.34;;;7.74;100.00
40171;BME280;37650;52.790;18.268;2023-04-25T04:03:55;99433.59;;;7.73;100.00
40171;BME280;37650;52.790;18.268;2023-04-25T04:07:16;99434.13;;;7.77;100.00
40171;BME280;37650;52.790;18.268;2023-04-25T04:10:44;99440.61;;;7.81;100.00
40171;BME280;37650;52.790;18.268;2023-04-25T04:14:06;99440.54;;;7.82;100.00
40171;BME280;37650;52.790;18.268;2023-04-25T04:17:28;99439.70;;;7.81;100.00
40171;BME280;37650;52.790;18.268;2023-04-25T04:20:49;99436.06;;;7.85;100.00
40171;BME280;37650;52.790;18.268;2023-04-25T04:24:11;99438.07;;;7.87;100.00
40171;BME280;37650;52.790;18.268;2023-04-25T04:27:43;99438.61;;;7.91;100.00
40171;BME280;37650;52.790;18.268;2023-04-25T04:31:21;99441.72;;;7.96;100.00
40171;BME280;37650;52.790;18.268;2023-04-25T04:34:43;99440.52;;;8.00;100.00
40171;BME280;37650;52.790;18.268;2023-04-25T04:38:06;99446.86;;;8.07;100.00
40171;BME280;37650;52.790;18.268;2023-04-25T04:41:28;99449.77;;;8.12;100.00
40171;BME280;37650;52.790;18.268;2023-04-25T04:45:10;99457.41;;;8.14;100.00
40171;BME280;37650;52.790;18.268;2023-04-25T04:48:49;99460.80;;;8.12;100.00
40171;BME280;37650;52.790;18.268;2023-04-25T04:52:33;99455.34;;;8.09;100.00
40171;BME280;37650;52.790;18.268;2023-04-25T04:55:59;99456.32;;;8.11;100.00
40171;BME280;37650;52.790;18.268;2023-04-25T04:59:30;99460.95;;;8.21;100.00
40171;BME280;37650;52.790;18.268;2023-04-25T05:03:02;99458.04;;;8.33;100.00
40171;BME280;37650;52.790;18.268;2023-04-25T05:06:55;99456.45;;;8.45;100.00
40171;BME280;37650;52.790;18.268;2023-04-25T05:10:39;99459.01;;;8.50;100.00
40171;BME280;37650;52.790;18.268;2023-04-25T05:14:17;99461.88;;;8.53;100.00
40171;BME280;37650;52.790;18.268;2023-04-25T05:17:44;99460.83;;;8.53;100.00
40171;BME280;37650;52.790;18.268;2023-04-25T05:21:31;99459.89;;;8.58;100.00
40171;BME280;37650;52.790;18.268;2023-04-25T05:25:17;99458.41;;;8.68;100.00
40171;BME280;37650;52.790;18.268;2023-04-25T05:28:49;99461.53;;;8.77;100.00
40171;BME280;37650;52.790;18.268;2023-04-25T05:36:40;99461.27;;;8.90;100.00
40171;BME280;37650;52.790;18.268;2023-04-25T05:40:01;99463.37;;;8.95;100.00
40171;BME280;37650;52.790;18.268;2023-04-25T05:43:36;99459.94;;;9.08;100.00
40171;BME280;37650;52.790;18.268;2023-04-25T05:47:16;99461.89;;;9.15;100.00
40171;BME280;37650;52.790;18.268;2023-04-25T05:50:52;99465.67;;;9.20;100.00
40171;BME280;37650;52.790;18.268;2023-04-25T05:54:41;99468.45;;;9.40;100.00
40171;BME280;37650;52.790;18.268;2023-04-25T05:58:02;99468.95;;;9.69;100.00
40171;BME280;37650;52.790;18.268;2023-04-25T06:01:39;99467.67;;;10.11;100.00
40171;BME280;37650;52.790;18.268;2023-04-25T06:05:02;99468.06;;;10.38;99.12
40171;BME280;37650;52.790;18.268;2023-04-25T06:08:38;99459.54;;;10.54;99.81
40171;BME280;37650;52.790;18.268;2023-04-25T06:11:59;99465.27;;;10.75;98.47
40171;BME280;37650;52.790;18.268;2023-04-25T06:15:21;99466.89;;;10.65;96.19
40171;BME280;37650;52.790;18.268;2023-04-25T06:18:43;99466.02;;;10.44;96.05
40171;BME280;37650;52.790;18.268;2023-04-25T06:22:05;99473.04;;;10.37;96.53
40171;BME280;37650;52.790;18.268;2023-04-25T06:25:27;99477.70;;;10.35;95.32
40171;BME280;37650;52.790;18.268;2023-04-25T06:28:49;99477.33;;;10.38;95.71
40171;BME280;37650;52.790;18.268;2023-04-25T06:32:10;99471.77;;;10.61;95.05
40171;BME280;37650;52.790;18.268;2023-04-25T06:35:31;99476.13;;;10.89;93.79
40171;BME280;37650;52.790;18.268;2023-04-25T06:38:53;99467.25;;;11.07;93.35
40171;BME280;37650;52.790;18.268;2023-04-25T06:42:33;99468.13;;;11.30;93.24
40171;BME280;37650;52.790;18.268;2023-04-25T06:46:15;99467.65;;;11.54;90.24
40171;BME280;37650;52.790;18.268;2023-04-25T06:49:38;99466.90;;;11.74;90.78
40171;BME280;37650;52.790;18.268;2023-04-25T06:53:00;99466.27;;;11.98;87.95
40171;BME280;37650;52.790;18.268;2023-04-25T06:56:23;99465.94;;;12.31;88.30
40171;BME280;37650;52.790;18.268;2023-04-25T06:59:54;99461.00;;;12.52;87.44
40171;BME280;37650;52.790;18.268;2023-04-25T07:03:17;99464.89;;;12.54;86.38
40171;BME280;37650;52.790;18.268;2023-04-25T07:06:39;99466.75;;;12.41;84.36
40171;BME280;37650;52.790;18.268;2023-04-25T07:10:04;99465.57;;;12.63;84.85
40171;BME280;37650;52.790;18.268;2023-04-25T07:13:26;99464.83;;;12.55;82.37
40171;BME280;37650;52.790;18.268;2023-04-25T07:16:47;99462.25;;;12.37;83.37
40171;BME280;37650;52.790;18.268;2023-04-25T07:20:09;99462.33;;;12.50;83.24
40171;BME280;37650;52.790;18.268;2023-04-25T07:23:31;99467.59;;;12.59;81.76
40171;BME280;37650;52.790;18.268;2023-04-25T07:26:54;99464.52;;;12.63;82.02
40171;BME280;37650;52.790;18.268;2023-04-25T07:30:18;99466.86;;;12.74;80.91
40171;BME280;37650;52.790;18.268;2023-04-25T07:33:39;99464.93;;;12.62;80.68
40171;BME280;37650;52.790;18.268;2023-04-25T07:37:01;99471.38;;;13.01;81.88
40171;BME280;37650;52.790;18.268;2023-04-25T07:40:27;99477.24;;;13.00;79.57
40171;BME280;37650;52.790;18.268;2023-04-25T07:43:52;99479.00;;;12.77;80.10
40171;BME280;37650;52.790;18.268;2023-04-25T07:47:14;99478.10;;;12.80;79.27
40171;BME280;37650;52.790;18.268;2023-04-25T07:50:35;99479.55;;;13.12;80.72
40171;BME280;37650;52.790;18.268;2023-04-25T07:53:56;99481.39;;;13.33;80.12
40171;BME280;37650;52.790;18.268;2023-04-25T07:57:17;99480.64;;;13.36;78.51
40171;BME280;37650;52.790;18.268;2023-04-25T08:00:39;99484.91;;;12.99;78.03
40171;BME280;37650;52.790;18.268;2023-04-25T08:04:16;99489.77;;;12.53;77.88
40171;BME280;37650;52.790;18.268;2023-04-25T08:07:50;99494.80;;;12.30;78.87
40171;BME280;37650;52.790;18.268;2023-04-25T08:11:11;99488.60;;;12.61;79.39
40171;BME280;37650;52.790;18.268;2023-04-25T08:14:33;99484.14;;;12.71;79.18
40171;BME280;37650;52.790;18.268;2023-04-25T08:17:57;99486.86;;;13.04;78.85
40171;BME280;37650;52.790;18.268;2023-04-25T08:21:18;99490.52;;;12.87;77.04
40171;BME280;37650;52.790;18.268;2023-04-25T08:24:40;99487.52;;;12.76;78.10
40171;BME280;37650;52.790;18.268;2023-04-25T08:28:02;99489.58;;;12.71;77.38
40171;BME280;37650;52.790;18.268;2023-04-25T08:31:24;99486.23;;;12.54;76.80
40171;BME280;37650;52.790;18.268;2023-04-25T08:34:52;99492.52;;;12.40;76.67
40171;BME280;37650;52.790;18.268;2023-04-25T08:38:15;99491.77;;;12.25;75.80
40171;BME280;37650;52.790;18.268;2023-04-25T08:41:37;99494.05;;;12.07;76.36
40171;BME280;37650;52.790;18.268;2023-04-25T08:44:58;99496.35;;;11.82;77.09
40171;BME280;37650;52.790;18.268;2023-04-25T08:48:24;99502.52;;;11.59;77.83
40171;BME280;37650;52.790;18.268;2023-04-25T08:51:47;99498.14;;;11.43;78.71
40171;BME280;37650;52.790;18.268;2023-04-25T08:55:13;99498.46;;;11.47;79.96
40171;BME280;37650;52.790;18.268;2023-04-25T08:58:35;99498.64;;;11.56;79.67
40171;BME280;37650;52.790;18.268;2023-04-25T09:01:58;99502.06;;;11.61;79.83
40171;BME280;37650;52.790;18.268;2023-04-25T09:05:19;99505.69;;;11.88;80.02
40171;BME280;37650;52.790;18.268;2023-04-25T09:08:40;99504.23;;;12.22;78.39
40171;BME280;37650;52.790;18.268;2023-04-25T09:12:02;99505.20;;;12.63;78.00
40171;BME280;37650;52.790;18.268;2023-04-25T09:15:24;99509.37;;;13.07;76.40
40171;BME280;37650;52.790;18.268;2023-04-25T09:18:46;99519.80;;;13.27;75.13
40171;BME280;37650;52.790;18.268;2023-04-25T09:22:08;99518.88;;;13.36;74.40
40171;BME280;37650;52.790;18.268;2023-04-25T09:25:37;99518.58;;;13.33;73.32
40171;BME280;37650;52.790;18.268;2023-04-25T09:29:07;99520.94;;;13.15;73.51
40171;BME280;37650;52.790;18.268;2023-04-25T09:32:29;99522.91;;;12.96;73.70
40171;BME280;37650;52.790;18.268;2023-04-25T09:35:52;99526.55;;;12.74;73.53
40171;BME280;37650;52.790;18.268;2023-04-25T09:39:22;99528.09;;;12.41;74.03
40171;BME280;37650;52.790;18.268;2023-04-25T09:42:52;99531.82;;;12.16;74.84
40171;BME280;37650;52.790;18.268;2023-04-25T09:46:14;99534.32;;;12.00;75.21
40171;BME280;37650;52.790;18.268;2023-04-25T09:49:40;99534.86;;;11.85;74.99
40171;BME280;37650;52.790;18.268;2023-04-25T09:53:05;99536.77;;;11.68;75.27
40171;BME280;37650;52.790;18.268;2023-04-25T09:56:48;99536.48;;;11.68;75.90
40171;BME280;37650;52.790;18.268;2023-04-25T10:00:12;99545.01;;;11.69;75.70
40171;BME280;37650;52.790;18.268;2023-04-25T10:03:38;99545.90;;;11.76;76.28
40171;BME280;37650;52.790;18.268;2023-04-25T10:07:24;99545.14;;;11.86;77.20
40171;BME280;37650;52.790;18.268;2023-04-25T10:10:49;99548.34;;;12.04;76.38
40171;BME280;37650;52.790;18.268;2023-04-25T10:14:12;99548.89;;;11.98;75.94
40171;BME280;37650;52.790;18.268;2023-04-25T10:17:33;99551.74;;;11.91;75.70
40171;BME280;37650;52.790;18.268;2023-04-25T10:20:58;99554.23;;;11.91;76.17
40171;BME280;37650;52.790;18.268;2023-04-25T10:24:20;99554.77;;;11.90;75.38
40171;BME280;37650;52.790;18.268;2023-04-25T10:27:41;99552.48;;;11.90;74.87
40171;BME280;37650;52.790;18.268;2023-04-25T10:31:08;99550.94;;;11.99;74.19
40171;BME280;37650;52.790;18.268;2023-04-25T10:34:45;99549.95;;;11.97;72.47
40171;BME280;37650;52.790;18.268;2023-04-25T10:38:10;99556.47;;;12.07;72.25
40171;BME280;37650;52.790;18.268;2023-04-25T10:41:52;99554.27;;;12.27;72.50
40171;BME280;37650;52.790;18.268;2023-04-25T10:45:14;99549.92;;;12.50;71.54
40171;BME280;37650;52.790;18.268;2023-04-25T10:48:35;99549.30;;;12.61;70.41
40171;BME280;37650;52.790;18.268;2023-04-25T10:52:17;99549.15;;;12.63;69.65
40171;BME280;37650;52.790;18.268;2023-04-25T10:55:49;99549.75;;;12.65;69.25
40171;BME280;37650;52.790;18.268;2023-04-25T10:59:11;99554.41;;;12.73;68.42
40171;BME280;37650;52.790;18.268;2023-04-25T11:02:47;99554.42;;;12.60;68.48
40171;BME280;37650;52.790;18.268;2023-04-25T11:10:02;99552.69;;;12.55;68.14
40171;BME280;37650;52.790;18.268;2023-04-25T11:13:29;99549.56;;;12.54;68.27
40171;BME280;37650;52.790;18.268;2023-04-25T11:16:54;99552.85;;;12.54;67.74
40171;BME280;37650;52.790;18.268;2023-04-25T11:20:18;99558.12;;;12.51;68.43
40171;BME280;37650;52.790;18.268;2023-04-25T11:23:45;99554.71;;;12.65;69.08
40171;BME280;37650;52.790;18.268;2023-04-25T11:27:08;99558.31;;;12.60;67.24
40171;BME280;37650;52.790;18.268;2023-04-25T11:30:30;99561.91;;;12.53;67.49
40171;BME280;37650;52.790;18.268;2023-04-25T11:33:54;99561.41;;;12.55;67.19
40171;BME280;37650;52.790;18.268;2023-04-25T11:37:17;99562.30;;;12.46;66.94
40171;BME280;37650;52.790;18.268;2023-04-25T11:40:39;99565.66;;;12.49;66.98
40171;BME280;37650;52.790;18.268;2023-04-25T11:44:00;99567.52;;;12.44;68.03
40171;BME280;37650;52.790;18.268;2023-04-25T11:47:29;99570.69;;;12.44;68.31
40171;BME280;37650;52.790;18.268;2023-04-25T11:50:50;99569.02;;;12.49;68.58
40171;BME280;37650;52.790;18.268;2023-04-25T11:54:12;99570.41;;;12.34;67.67
40171;BME280;37650;52.790;18.268;2023-04-25T11:57:34;99569.13;;;12.09;67.68
40171;BME280;37650;52.790;18.268;2023-04-25T12:00:56;99572.13;;;11.97;67.83
40171;BME280;37650;52.790;18.268;2023-04-25T12:04:21;99575.91;;;11.95;67.88
40171;BME280;37650;52.790;18.268;2023-04-25T12:07:43;99574.71;;;11.95;68.29
40171;BME280;37650;52.790;18.268;2023-04-25T12:11:04;99572.71;;;11.99;68.73
40171;BME280;37650;52.790;18.268;2023-04-25T12:14:30;99573.09;;;12.08;68.81
40171;BME280;37650;52.790;18.268;2023-04-25T12:17:53;99571.31;;;12.15;68.44
40171;BME280;37650;52.790;18.268;2023-04-25T12:21:15;99573.55;;;12.21;67.63
40171;BME280;37650;52.790;18.268;2023-04-25T12:24:36;99572.23;;;12.36;68.01
40171;BME280;37650;52.790;18.268;2023-04-25T12:28:18;99572.27;;;12.59;67.36
40171;BME280;37650;52.790;18.268;2023-04-25T12:31:40;99570.00;;;12.80;66.19
40171;BME280;37650;52.790;18.268;2023-04-25T12:35:01;99567.09;;;13.05;66.32
40171;BME280;37650;52.790;18.268;2023-04-25T12:41:47;99563.21;;;13.18;64.56
40171;BME280;37650;52.790;18.268;2023-04-25T12:45:08;99564.75;;;13.27;65.11
40171;BME280;37650;52.790;18.268;2023-04-25T12:48:29;99566.95;;;13.42;65.12
40171;BME280;37650;52.790;18.268;2023-04-25T12:51:51;99566.39;;;13.43;65.40
40171;BME280;37650;52.790;18.268;2023-04-25T12:55:12;99566.95;;;13.25;65.96
40171;BME280;37650;52.790;18.268;2023-04-25T12:58:35;99562.02;;;13.22;67.21
40171;BME280;37650;52.790;18.268;2023-04-25T13:01:57;99563.06;;;13.25;66.55
40171;BME280;37650;52.790;18.268;2023-04-25T13:05:18;99563.04;;;13.17;66.34
40171;BME280;37650;52.790;18.268;2023-04-25T13:09:06;99567.15;;;13.22;66.75
40171;BME280;37650;52.790;18.268;2023-04-25T13:12:28;99564.03;;;13.33;67.48
40171;BME280;37650;52.790;18.268;2023-04-25T13:15:49;99567.04;;;13.38;64.97
40171;BME280;37650;52.790;18.268;2023-04-25T13:19:11;99565.92;;;13.31;63.61
40171;BME280;37650;52.790;18.268;2023-04-25T13:22:32;99563.27;;;13.34;63.90
40171;BME280;37650;52.790;18.268;2023-04-25T13:25:55;99560.17;;;13.69;64.57
40171;BME280;37650;52.790;18.268;2023-04-25T13:29:18;99562.66;;;14.18;64.48
40171;BME280;37650;52.790;18.268;2023-04-25T13:32:40;99564.73;;;14.46;62.47
40171;BME280;37650;52.790;18.268;2023-04-25T13:36:02;99573.55;;;14.41;61.47
40171;BME280;37650;52.790;18.268;2023-04-25T13:39:50;99564.50;;;14.42;62.08
40171;BME280;37650;52.790;18.268;2023-04-25T13:43:12;99565.53;;;14.50;62.01
40171;BME280;37650;52.790;18.268;2023-04-25T13:46:33;99565.41;;;14.62;61.92
40171;BME280;37650;52.790;18.268;2023-04-25T13:49:55;99567.85;;;14.42;59.99
40171;BME280;37650;52.790;18.268;2023-04-25T13:53:16;99572.07;;;14.20;60.53
40171;BME280;37650;52.790;18.268;2023-04-25T13:56:38;99568.63;;;13.86;61.06
40171;BME280;37650;52.790;18.268;2023-04-25T13:59:59;99571.61;;;13.75;62.77
40171;BME280;37650;52.790;18.268;2023-04-25T14:03:27;99572.42;;;13.59;63.44
40171;BME280;37650;52.790;18.268;2023-04-25T14:06:49;99575.70;;;13.46;64.57
40171;BME280;37650;52.790;18.268;2023-04-25T14:10:11;99573.60;;;13.40;65.07
40171;BME280;37650;52.790;18.268;2023-04-25T14:13:32;99578.27;;;13.47;65.50
40171;BME280;37650;52.790;18.268;2023-04-25T14:16:53;99576.55;;;13.55;64.86
40171;BME280;37650;52.790;18.268;2023-04-25T14:20:15;99575.60;;;13.59;65.04
40171;BME280;37650;52.790;18.268;2023-04-25T14:23:36;99573.27;;;13.74;65.29
40171;BME280;37650;52.790;18.268;2023-04-25T14:26:58;99576.14;;;14.01;65.24
40171;BME280;37650;52.790;18.268;2023-04-25T14:30:20;99577.65;;;14.13;65.75
40171;BME280;37650;52.790;18.268;2023-04-25T14:33:41;99578.97;;;14.06;64.77
40171;BME280;37650;52.790;18.268;2023-04-25T14:37:04;99580.04;;;13.75;64.21
40171;BME280;37650;52.790;18.268;2023-04-25T14:40:26;99583.06;;;13.53;65.02
40171;BME280;37650;52.790;18.268;2023-04-25T14:43:47;99585.77;;;13.82;65.30
40171;BME280;37650;52.790;18.268;2023-04-25T14:47:08;99583.09;;;13.91;63.87
40171;BME280;37650;52.790;18.268;2023-04-25T14:50:30;99590.70;;;13.90;63.43
40171;BME280;37650;52.790;18.268;2023-04-25T14:53:51;99592.11;;;13.82;61.78
40171;BME280;37650;52.790;18.268;2023-04-25T14:57:13;99593.40;;;13.62;61.44
40171;BME280;37650;52.790;18.268;2023-04-25T15:00:34;99597.98;;;13.48;61.42
40171;BME280;37650;52.790;18.268;2023-04-25T15:03:56;99594.95;;;13.23;61.51
40171;BME280;37650;52.790;18.268;2023-04-25T15:07:18;99603.30;;;13.03;62.90
40171;BME280;37650;52.790;18.268;2023-04-25T15:10:39;99606.83;;;12.76;63.36
40171;BME280;37650;52.790;18.268;2023-04-25T15:14:01;99616.39;;;12.54;63.74
40171;BME280;37650;52.790;18.268;2023-04-25T15:17:22;99616.75;;;12.38;64.27
40171;BME280;37650;52.790;18.268;2023-04-25T15:20:44;99620.42;;;12.32;64.92
40171;BME280;37650;52.790;18.268;2023-04-25T15:24:05;99626.91;;;12.23;65.44
40171;BME280;37650;52.790;18.268;2023-04-25T15:27:26;99626.50;;;12.09;65.44
40171;BME280;37650;52.790;18.268;2023-04-25T15:30:48;99630.08;;;11.85;65.80
40171;BME280;37650;52.790;18.268;2023-04-25T15:34:10;99629.45;;;11.70;66.31
40171;BME280;37650;52.790;18.268;2023-04-25T15:37:32;99631.56;;;11.60;67.09
40171;BME280;37650;52.790;18.268;2023-04-25T15:40:54;99630.70;;;11.50;67.90
40171;BME280;37650;52.790;18.268;2023-04-25T15:44:15;99634.98;;;11.38;68.93
40171;BME280;37650;52.790;18.268;2023-04-25T15:47:37;99635.55;;;11.31;69.77
40171;BME280;37650;52.790;18.268;2023-04-25T15:50:59;99640.98;;;11.28;70.39
40171;BME280;37650;52.790;18.268;2023-04-25T15:54:21;99641.50;;;11.21;71.25
40171;BME280;37650;52.790;18.268;2023-04-25T15:57:42;99646.03;;;11.18;71.94
40171;BME280;37650;52.790;18.268;2023-04-25T16:01:04;99643.70;;;11.19;72.83
40171;BME280;37650;52.790;18.268;2023-04-25T16:04:27;99641.89;;;11.21;73.48
40171;BME280;37650;52.790;18.268;2023-04-25T16:07:55;99643.45;;;11.17;73.93
40171;BME280;37650;52.790;18.268;2023-04-25T16:11:17;99643.92;;;11.19;74.25
40171;BME280;37650;52.790;18.268;2023-04-25T16:14:38;99650.75;;;11.09;74.63
40171;BME280;37650;52.790;18.268;2023-04-25T16:17:59;99661.89;;;10.97;75.10
40171;BME280;37650;52.790;18.268;2023-04-25T16:21:21;99668.08;;;10.89;75.52
40171;BME280;37650;52.790;18.268;2023-04-25T16:24:43;99667.71;;;10.75;75.52
40171;BME280;37650;52.790;18.268;2023-04-25T16:28:04;99663.92;;;10.70;75.39
40171;BME280;37650;52.790;18.268;2023-04-25T16:31:26;99666.20;;;10.63;74.88
40171;BME280;37650;52.790;18.268;2023-04-25T16:34:47;99664.95;;;10.56;74.06
40171;BME280;37650;52.790;18.268;2023-04-25T16:38:08;99666.15;;;10.52;74.24
40171;BME280;37650;52.790;18.268;2023-04-25T16:41:29;99669.95;;;10.43;76.12
40171;BME280;37650;52.790;18.268;2023-04-25T16:44:51;99666.16;;;10.27;77.80
40171;BME280;37650;52.790;18.268;2023-04-25T16:48:12;99667.24;;;10.19;78.68
40171;BME280;37650;52.790;18.268;2023-04-25T16:51:34;99668.67;;;10.10;78.96
40171;BME280;37650;52.790;18.268;2023-04-25T16:54:56;99676.48;;;10.08;79.64
40171;BME280;37650;52.790;18.268;2023-04-25T16:58:18;99675.32;;;10.06;80.44
40171;BME280;37650;52.790;18.268;2023-04-25T17:01:39;99675.82;;;10.03;80.11
40171;BME280;37650;52.790;18.268;2023-04-25T17:05:01;99680.75;;;9.95;80.31
40171;BME280;37650;52.790;18.268;2023-04-25T17:08:22;99684.08;;;9.91;80.57
40171;BME280;37650;52.790;18.268;2023-04-25T17:11:45;99686.54;;;9.88;80.86
40171;BME280;37650;52.790;18.268;2023-04-25T17:15:06;99685.66;;;9.87;80.89
40171;BME280;37650;52.790;18.268;2023-04-25T17:18:28;99692.30;;;9.84;80.82
40171;BME280;37650;52.790;18.268;2023-04-25T17:21:49;99689.93;;;9.86;80.95
40171;BME280;37650;52.790;18.268;2023-04-25T17:25:10;99693.43;;;9.90;81.38
40171;BME280;37650;52.790;18.268;2023-04-25T17:28:31;99693.35;;;9.88;81.24
40171;BME280;37650;52.790;18.268;2023-04-25T17:31:53;99699.35;;;9.87;81.79
40171;BME280;37650;52.790;18.268;2023-04-25T17:35:17;99707.60;;;9.79;81.74
40171;BME280;37650;52.790;18.268;2023-04-25T17:38:39;99711.78;;;9.76;82.23
40171;BME280;37650;52.790;18.268;2023-04-25T17:42:01;99713.07;;;9.74;82.34
40171;BME280;37650;52.790;18.268;2023-04-25T17:45:22;99714.98;;;9.66;82.67
40171;BME280;37650;52.790;18.268;2023-04-25T17:48:44;99723.25;;;9.57;83.22
40171;BME280;37650;52.790;18.268;2023-04-25T17:52:05;99728.21;;;9.56;83.62
40171;BME280;37650;52.790;18.268;2023-04-25T17:55:27;99728.89;;;9.53;84.14
40171;BME280;37650;52.790;18.268;2023-04-25T17:58:50;99737.61;;;9.49;84.64